sensor_id;sensor_type;location;lat;lon;timestamp;temperature;humidity
20288;DHT22;10303;51.960;8.372;2022-12-18T00:03:48;-5.60;90.80
20288;DHT22;10303;51.960;8.372;2022-12-18T00:06:15;-5.60;90.80
20288;DHT22;10303;51.960;8.372;2022-12-18T00:08:43;-5.60;90.80
20288;DHT22;10303;51.960;8.372;2022-12-18T00:11:15;-5.60;90.90
20288;DHT22;10303;51.960;8.372;2022-12-18T00:13:43;-5.50;90.90
20288;DHT22;10303;51.960;8.372;2022-12-18T00:16:12;-5.50;90.90
20288;DHT22;10303;51.960;8.372;2022-12-18T00:18:41;-5.50;90.90
20288;DHT22;10303;51.960;8.372;2022-12-18T00:21:09;-5.40;90.90
20288;DHT22;10303;51.960;8.372;2022-12-18T00:23:38;-5.30;91.00
20288;DHT22;10303;51.960;8.372;2022-12-18T00:26:16;-5.40;90.90
20288;DHT22;10303;51.960;8.372;2022-12-18T00:28:44;-5.40;90.90
20288;DHT22;10303;51.960;8.372;2022-12-18T00:31:20;-5.40;90.90
20288;DHT22;10303;51.960;8.372;2022-12-18T00:33:48;-5.40;90.90
20288;DHT22;10303;51.960;8.372;2022-12-18T00:36:19;-5.40;90.80
20288;DHT22;10303;51.960;8.372;2022-12-18T00:38:47;-5.40;90.80
20288;DHT22;10303;51.960;8.372;2022-12-18T00:41:18;-5.30;90.90
20288;DHT22;10303;51.960;8.372;2022-12-18T00:44:04;-5.30;90.90
20288;DHT22;10303;51.960;8.372;2022-12-18T00:46:32;-5.30;91.00
20288;DHT22;10303;51.960;8.372;2022-12-18T00:48:59;-5.30;91.00
20288;DHT22;10303;51.960;8.372;2022-12-18T00:51:25;-5.30;91.10
20288;DHT22;10303;51.960;8.372;2022-12-18T00:53:52;-5.30;91.10
20288;DHT22;10303;51.960;8.372;2022-12-18T00:56:21;-5.20;91.20
20288;DHT22;10303;51.960;8.372;2022-12-18T00:58:47;-5.20;91.20
20288;DHT22;10303;51.960;8.372;2022-12-18T01:01:14;-5.20;91.20
20288;DHT22;10303;51.960;8.372;2022-12-18T01:03:40;-5.10;91.30
20288;DHT22;10303;51.960;8.372;2022-12-18T01:06:07;-5.10;91.30
20288;DHT22;10303;51.960;8.372;2022-12-18T01:08:38;-5.10;91.30
20288;DHT22;10303;51.960;8.372;2022-12-18T01:11:09;-5.10;91.20
20288;DHT22;10303;51.960;8.372;2022-12-18T01:13:37;-5.10;91.30
20288;DHT22;10303;51.960;8.372;2022-12-18T01:16:04;-5.10;91.20
20288;DHT22;10303;51.960;8.372;2022-12-18T01:18:30;-5.00;91.20
20288;DHT22;10303;51.960;8.372;2022-12-18T01:20:58;-5.00;91.30
20288;DHT22;10303;51.960;8.372;2022-12-18T01:23:24;-5.00;91.30
20288;DHT22;10303;51.960;8.372;2022-12-18T01:25:50;-5.00;91.30
20288;DHT22;10303;51.960;8.372;2022-12-18T01:28:16;-5.00;91.30
20288;DHT22;10303;51.960;8.372;2022-12-18T01:30:42;-5.00;91.30
20288;DHT22;10303;51.960;8.372;2022-12-18T01:33:07;-5.00;91.30
20288;DHT22;10303;51.960;8.372;2022-12-18T01:35:40;-5.00;91.30
20288;DHT22;10303;51.960;8.372;2022-12-18T01:38:07;-4.90;91.40
20288;DHT22;10303;51.960;8.372;2022-12-18T01:40:33;-4.90;91.30
20288;DHT22;10303;51.960;8.372;2022-12-18T01:42:59;-4.90;91.40
20288;DHT22;10303;51.960;8.372;2022-12-18T01:45:27;-4.90;91.40
20288;DHT22;10303;51.960;8.372;2022-12-18T01:48:00;-4.90;91.40
20288;DHT22;10303;51.960;8.372;2022-12-18T01:50:32;-4.90;91.50
20288;DHT22;10303;51.960;8.372;2022-12-18T01:53:10;-4.80;91.50
20288;DHT22;10303;51.960;8.372;2022-12-18T01:55:48;-4.80;91.50
20288;DHT22;10303;51.960;8.372;2022-12-18T01:58:19;-4.80;91.40
20288;DHT22;10303;51.960;8.372;2022-12-18T02:00:49;-4.80;91.40
20288;DHT22;10303;51.960;8.372;2022-12-18T02:03:15;-4.80;91.40
20288;DHT22;10303;51.960;8.372;2022-12-18T02:06:05;-4.80;91.40
20288;DHT22;10303;51.960;8.372;2022-12-18T02:08:53;-4.80;91.40
20288;DHT22;10303;51.960;8.372;2022-12-18T02:11:33;-4.80;91.40
20288;DHT22;10303;51.960;8.372;2022-12-18T02:14:15;-4.90;91.40
20288;DHT22;10303;51.960;8.372;2022-12-18T02:22:34;-4.80;91.50
20288;DHT22;10303;51.960;8.372;2022-12-18T02:25:28;-4.80;91.50
20288;DHT22;10303;51.960;8.372;2022-12-18T02:28:15;-4.80;91.50
20288;DHT22;10303;51.960;8.372;2022-12-18T02:30:48;-4.80;91.40
20288;DHT22;10303;51.960;8.372;2022-12-18T02:33:17;-4.70;91.50
20288;DHT22;10303;51.960;8.372;2022-12-18T02:35:45;-4.80;91.40
20288;DHT22;10303;51.960;8.372;2022-12-18T02:38:14;-4.80;91.40
20288;DHT22;10303;51.960;8.372;2022-12-18T02:40:44;-4.70;91.40
20288;DHT22;10303;51.960;8.372;2022-12-18T02:43:15;-4.70;91.30
20288;DHT22;10303;51.960;8.372;2022-12-18T02:45:52;-4.80;91.30
20288;DHT22;10303;51.960;8.372;2022-12-18T02:48:33;-4.80;91.40
20288;DHT22;10303;51.960;8.372;2022-12-18T02:51:11;-4.80;91.50
20288;DHT22;10303;51.960;8.372;2022-12-18T02:53:56;-4.80;91.50
20288;DHT22;10303;51.960;8.372;2022-12-18T02:56:41;-4.80;91.50
20288;DHT22;10303;51.960;8.372;2022-12-18T02:59:27;-4.70;91.50
20288;DHT22;10303;51.960;8.372;2022-12-18T03:02:21;-4.70;91.50
20288;DHT22;10303;51.960;8.372;2022-12-18T03:05:04;-4.70;91.50
20288;DHT22;10303;51.960;8.372;2022-12-18T03:08:02;-4.70;91.50
20288;DHT22;10303;51.960;8.372;2022-12-18T03:10:42;-4.70;91.50
20288;DHT22;10303;51.960;8.372;2022-12-18T03:16:00;-4.70;91.40
20288;DHT22;10303;51.960;8.372;2022-12-18T03:18:55;-4.70;91.40
20288;DHT22;10303;51.960;8.372;2022-12-18T03:21:34;-4.70;91.40
20288;DHT22;10303;51.960;8.372;2022-12-18T03:24:11;-4.70;91.40
20288;DHT22;10303;51.960;8.372;2022-12-18T03:26:42;-4.70;91.50
20288;DHT22;10303;51.960;8.372;2022-12-18T03:29:17;-4.70;91.50
20288;DHT22;10303;51.960;8.372;2022-12-18T03:31:53;-4.70;91.50
20288;DHT22;10303;51.960;8.372;2022-12-18T03:34:31;-4.70;91.60
20288;DHT22;10303;51.960;8.372;2022-12-18T03:37:03;-4.60;91.60
20288;DHT22;10303;51.960;8.372;2022-12-18T03:39:32;-4.70;91.60
20288;DHT22;10303;51.960;8.372;2022-12-18T03:48:04;-4.60;91.60
20288;DHT22;10303;51.960;8.372;2022-12-18T03:51:01;-4.60;91.60
20288;DHT22;10303;51.960;8.372;2022-12-18T03:53:59;-4.60;91.50
20288;DHT22;10303;51.960;8.372;2022-12-18T03:56:39;-4.60;91.50
20288;DHT22;10303;51.960;8.372;2022-12-18T03:59:11;-4.60;91.50
20288;DHT22;10303;51.960;8.372;2022-12-18T04:01:49;-4.60;91.50
20288;DHT22;10303;51.960;8.372;2022-12-18T04:04:19;-4.50;91.60
20288;DHT22;10303;51.960;8.372;2022-12-18T04:06:48;-4.60;91.60
20288;DHT22;10303;51.960;8.372;2022-12-18T04:09:18;-4.60;91.60
20288;DHT22;10303;51.960;8.372;2022-12-18T04:11:46;-4.50;91.80
20288;DHT22;10303;51.960;8.372;2022-12-18T04:14:15;-4.50;91.80
20288;DHT22;10303;51.960;8.372;2022-12-18T04:16:41;-4.40;91.80
20288;DHT22;10303;51.960;8.372;2022-12-18T04:19:10;-4.50;91.90
20288;DHT22;10303;51.960;8.372;2022-12-18T04:21:40;-4.40;91.90
20288;DHT22;10303;51.960;8.372;2022-12-18T04:24:08;-4.40;92.00
20288;DHT22;10303;51.960;8.372;2022-12-18T04:26:37;-4.40;92.00
20288;DHT22;10303;51.960;8.372;2022-12-18T04:29:14;-4.40;92.00
20288;DHT22;10303;51.960;8.372;2022-12-18T04:31:40;-4.40;92.00
20288;DHT22;10303;51.960;8.372;2022-12-18T04:34:06;-4.30;92.00
20288;DHT22;10303;51.960;8.372;2022-12-18T04:36:38;-4.30;92.00
20288;DHT22;10303;51.960;8.372;2022-12-18T04:39:04;-4.30;92.00
20288;DHT22;10303;51.960;8.372;2022-12-18T04:41:31;-4.30;92.00
20288;DHT22;10303;51.960;8.372;2022-12-18T04:43:57;-4.30;92.10
20288;DHT22;10303;51.960;8.372;2022-12-18T04:46:23;-4.30;92.10
20288;DHT22;10303;51.960;8.372;2022-12-18T04:48:49;-4.20;92.20
20288;DHT22;10303;51.960;8.372;2022-12-18T04:51:15;-4.20;92.20
20288;DHT22;10303;51.960;8.372;2022-12-18T04:53:41;-4.20;92.20
20288;DHT22;10303;51.960;8.372;2022-12-18T04:56:12;-4.20;92.20
20288;DHT22;10303;51.960;8.372;2022-12-18T04:58:40;-4.20;92.30
20288;DHT22;10303;51.960;8.372;2022-12-18T05:01:08;-4.10;92.60
20288;DHT22;10303;51.960;8.372;2022-12-18T05:03:36;-4.10;92.30
20288;DHT22;10303;51.960;8.372;2022-12-18T05:06:04;-4.10;92.30
20288;DHT22;10303;51.960;8.372;2022-12-18T05:08:30;-4.10;92.40
20288;DHT22;10303;51.960;8.372;2022-12-18T05:11:08;-4.00;92.40
20288;DHT22;10303;51.960;8.372;2022-12-18T05:13:36;-4.00;92.50
20288;DHT22;10303;51.960;8.372;2022-12-18T05:16:03;-4.00;92.60
20288;DHT22;10303;51.960;8.372;2022-12-18T05:18:30;-3.90;92.60
20288;DHT22;10303;51.960;8.372;2022-12-18T05:20:57;-3.90;92.60
20288;DHT22;10303;51.960;8.372;2022-12-18T05:23:24;-3.90;92.70
20288;DHT22;10303;51.960;8.372;2022-12-18T05:25:52;-3.90;92.70
20288;DHT22;10303;51.960;8.372;2022-12-18T05:28:21;-3.90;92.60
20288;DHT22;10303;51.960;8.372;2022-12-18T05:30:50;-3.80;92.70
20288;DHT22;10303;51.960;8.372;2022-12-18T05:33:19;-3.80;92.60
20288;DHT22;10303;51.960;8.372;2022-12-18T05:35:54;-3.80;92.60
20288;DHT22;10303;51.960;8.372;2022-12-18T05:38:25;-3.80;92.70
20288;DHT22;10303;51.960;8.372;2022-12-18T05:40:53;-3.80;92.60
20288;DHT22;10303;51.960;8.372;2022-12-18T05:43:20;-3.80;92.60
20288;DHT22;10303;51.960;8.372;2022-12-18T05:45:50;-3.80;93.00
20288;DHT22;10303;51.960;8.372;2022-12-18T05:48:17;-3.70;92.70
20288;DHT22;10303;51.960;8.372;2022-12-18T05:50:44;-3.70;92.80
20288;DHT22;10303;51.960;8.372;2022-12-18T05:53:12;-3.70;92.80
20288;DHT22;10303;51.960;8.372;2022-12-18T05:55:41;-3.70;92.80
20288;DHT22;10303;51.960;8.372;2022-12-18T05:58:09;-3.70;92.90
20288;DHT22;10303;51.960;8.372;2022-12-18T06:00:38;-3.60;93.00
20288;DHT22;10303;51.960;8.372;2022-12-18T06:03:07;-3.60;93.00
20288;DHT22;10303;51.960;8.372;2022-12-18T06:05:39;-3.60;93.00
20288;DHT22;10303;51.960;8.372;2022-12-18T06:08:09;-3.50;93.00
20288;DHT22;10303;51.960;8.372;2022-12-18T06:10:36;-3.60;93.00
20288;DHT22;10303;51.960;8.372;2022-12-18T06:13:03;-3.50;93.00
20288;DHT22;10303;51.960;8.372;2022-12-18T06:15:29;-3.50;93.00
20288;DHT22;10303;51.960;8.372;2022-12-18T06:17:55;-3.50;93.00
20288;DHT22;10303;51.960;8.372;2022-12-18T06:20:22;-3.50;93.00
20288;DHT22;10303;51.960;8.372;2022-12-18T06:22:48;-3.50;93.10
20288;DHT22;10303;51.960;8.372;2022-12-18T06:25:14;-3.40;93.10
20288;DHT22;10303;51.960;8.372;2022-12-18T06:27:41;-3.40;93.10
20288;DHT22;10303;51.960;8.372;2022-12-18T06:30:07;-3.40;93.10
20288;DHT22;10303;51.960;8.372;2022-12-18T06:32:34;-3.40;93.10
20288;DHT22;10303;51.960;8.372;2022-12-18T06:35:00;-3.40;93.00
20288;DHT22;10303;51.960;8.372;2022-12-18T06:37:26;-3.40;93.00
20288;DHT22;10303;51.960;8.372;2022-12-18T06:39:53;-3.40;93.10
20288;DHT22;10303;51.960;8.372;2022-12-18T06:42:19;-3.30;93.10
20288;DHT22;10303;51.960;8.372;2022-12-18T06:44:45;-3.40;93.10
20288;DHT22;10303;51.960;8.372;2022-12-18T06:47:10;-3.30;93.20
20288;DHT22;10303;51.960;8.372;2022-12-18T06:49:36;-3.30;93.20
20288;DHT22;10303;51.960;8.372;2022-12-18T06:52:02;-3.30;93.30
20288;DHT22;10303;51.960;8.372;2022-12-18T06:54:28;-3.30;93.30
20288;DHT22;10303;51.960;8.372;2022-12-18T06:56:54;-3.30;93.30
20288;DHT22;10303;51.960;8.372;2022-12-18T06:59:22;-3.30;93.30
20288;DHT22;10303;51.960;8.372;2022-12-18T07:01:47;-3.30;93.30
20288;DHT22;10303;51.960;8.372;2022-12-18T07:04:13;-3.20;93.30
20288;DHT22;10303;51.960;8.372;2022-12-18T07:06:39;-3.20;93.30
20288;DHT22;10303;51.960;8.372;2022-12-18T07:09:05;-3.20;93.20
20288;DHT22;10303;51.960;8.372;2022-12-18T07:11:35;-3.20;93.30
20288;DHT22;10303;51.960;8.372;2022-12-18T07:14:01;-3.20;93.40
20288;DHT22;10303;51.960;8.372;2022-12-18T07:16:27;-3.20;93.40
20288;DHT22;10303;51.960;8.372;2022-12-18T07:18:56;-3.20;93.40
20288;DHT22;10303;51.960;8.372;2022-12-18T07:21:23;-3.20;93.40
20288;DHT22;10303;51.960;8.372;2022-12-18T07:23:50;-3.20;93.50
20288;DHT22;10303;51.960;8.372;2022-12-18T07:26:18;-3.20;93.50
20288;DHT22;10303;51.960;8.372;2022-12-18T07:28:46;-3.20;93.50
20288;DHT22;10303;51.960;8.372;2022-12-18T07:31:16;-3.10;93.50
20288;DHT22;10303;51.960;8.372;2022-12-18T07:33:45;-3.00;93.70
20288;DHT22;10303;51.960;8.372;2022-12-18T07:36:12;-3.20;93.70
20288;DHT22;10303;51.960;8.372;2022-12-18T07:38:39;-3.20;93.70
20288;DHT22;10303;51.960;8.372;2022-12-18T07:41:11;-3.10;93.70
20288;DHT22;10303;51.960;8.372;2022-12-18T07:43:39;-3.10;93.70
20288;DHT22;10303;51.960;8.372;2022-12-18T07:46:07;-3.10;93.80
20288;DHT22;10303;51.960;8.372;2022-12-18T07:48:34;-3.10;93.80
20288;DHT22;10303;51.960;8.372;2022-12-18T07:51:02;-3.10;93.80
20288;DHT22;10303;51.960;8.372;2022-12-18T07:53:29;-3.00;93.80
20288;DHT22;10303;51.960;8.372;2022-12-18T07:55:57;-3.00;94.00
20288;DHT22;10303;51.960;8.372;2022-12-18T07:58:24;-3.00;93.90
20288;DHT22;10303;51.960;8.372;2022-12-18T08:00:52;-3.00;94.10
20288;DHT22;10303;51.960;8.372;2022-12-18T08:03:18;-3.00;94.10
20288;DHT22;10303;51.960;8.372;2022-12-18T08:05:45;-2.90;94.20
20288;DHT22;10303;51.960;8.372;2022-12-18T08:08:11;-2.90;94.30
20288;DHT22;10303;51.960;8.372;2022-12-18T08:10:37;-2.80;94.30
20288;DHT22;10303;51.960;8.372;2022-12-18T08:13:04;-2.80;94.40
20288;DHT22;10303;51.960;8.372;2022-12-18T08:15:30;-2.80;94.50
20288;DHT22;10303;51.960;8.372;2022-12-18T08:17:56;-2.70;94.70
20288;DHT22;10303;51.960;8.372;2022-12-18T08:20:22;-2.70;94.90
20288;DHT22;10303;51.960;8.372;2022-12-18T08:22:48;-2.60;95.00
20288;DHT22;10303;51.960;8.372;2022-12-18T08:25:14;-2.40;95.20
20288;DHT22;10303;51.960;8.372;2022-12-18T08:27:40;-2.50;95.20
20288;DHT22;10303;51.960;8.372;2022-12-18T08:30:07;-2.40;95.50
20288;DHT22;10303;51.960;8.372;2022-12-18T08:32:34;-2.40;95.60
20288;DHT22;10303;51.960;8.372;2022-12-18T08:35:00;-2.30;95.80
20288;DHT22;10303;51.960;8.372;2022-12-18T08:37:26;-2.20;96.00
20288;DHT22;10303;51.960;8.372;2022-12-18T08:39:52;-2.10;96.20
20288;DHT22;10303;51.960;8.372;2022-12-18T08:42:18;-2.00;96.40
20288;DHT22;10303;51.960;8.372;2022-12-18T08:45:03;-1.90;96.50
20288;DHT22;10303;51.960;8.372;2022-12-18T08:47:29;-1.80;96.60
20288;DHT22;10303;51.960;8.372;2022-12-18T08:49:55;-1.60;96.80
20288;DHT22;10303;51.960;8.372;2022-12-18T08:52:21;-1.50;97.00
20288;DHT22;10303;51.960;8.372;2022-12-18T08:54:47;-1.50;97.00
20288;DHT22;10303;51.960;8.372;2022-12-18T08:57:13;-1.40;97.10
20288;DHT22;10303;51.960;8.372;2022-12-18T08:59:39;-1.10;97.40
20288;DHT22;10303;51.960;8.372;2022-12-18T09:02:05;-1.20;97.60
20288;DHT22;10303;51.960;8.372;2022-12-18T09:04:31;-1.00;98.40
20288;DHT22;10303;51.960;8.372;2022-12-18T09:06:57;-0.80;98.90
20288;DHT22;10303;51.960;8.372;2022-12-18T09:09:23;-0.60;99.90
20288;DHT22;10303;51.960;8.372;2022-12-18T09:11:49;-0.30;99.90
20288;DHT22;10303;51.960;8.372;2022-12-18T09:14:15;0.00;99.90
20288;DHT22;10303;51.960;8.372;2022-12-18T09:16:41;0.30;99.90
20288;DHT22;10303;51.960;8.372;2022-12-18T09:19:08;0.70;99.90
20288;DHT22;10303;51.960;8.372;2022-12-18T09:21:35;0.80;99.90
20288;DHT22;10303;51.960;8.372;2022-12-18T09:24:01;1.10;99.90
20288;DHT22;10303;51.960;8.372;2022-12-18T09:26:27;1.10;99.90
20288;DHT22;10303;51.960;8.372;2022-12-18T09:28:54;1.30;99.90
20288;DHT22;10303;51.960;8.372;2022-12-18T09:31:22;1.30;99.70
20288;DHT22;10303;51.960;8.372;2022-12-18T09:33:49;1.40;99.50
20288;DHT22;10303;51.960;8.372;2022-12-18T09:36:17;1.50;99.40
20288;DHT22;10303;51.960;8.372;2022-12-18T09:38:44;1.60;99.30
20288;DHT22;10303;51.960;8.372;2022-12-18T09:44:43;1.70;99.60
20288;DHT22;10303;51.960;8.372;2022-12-18T09:49:55;2.00;99.90
20288;DHT22;10303;51.960;8.372;2022-12-18T09:52:46;2.10;99.90
20288;DHT22;10303;51.960;8.372;2022-12-18T09:55:39;2.30;99.90
20288;DHT22;10303;51.960;8.372;2022-12-18T10:01:01;2.60;99.90
20288;DHT22;10303;51.960;8.372;2022-12-18T10:03:27;2.80;99.90
20288;DHT22;10303;51.960;8.372;2022-12-18T10:12:08;3.30;99.90
20288;DHT22;10303;51.960;8.372;2022-12-18T10:15:21;3.40;99.90
20288;DHT22;10303;51.960;8.372;2022-12-18T10:21:03;3.70;99.90
20288;DHT22;10303;51.960;8.372;2022-12-18T10:23:51;3.80;99.90
20288;DHT22;10303;51.960;8.372;2022-12-18T10:26:25;3.90;99.90
20288;DHT22;10303;51.960;8.372;2022-12-18T10:28:52;4.00;99.90
20288;DHT22;10303;51.960;8.372;2022-12-18T10:31:21;4.20;99.90
20288;DHT22;10303;51.960;8.372;2022-12-18T10:33:49;4.30;99.90
20288;DHT22;10303;51.960;8.372;2022-12-18T10:36:15;4.40;99.90
20288;DHT22;10303;51.960;8.372;2022-12-18T10:38:41;4.50;99.90
20288;DHT22;10303;51.960;8.372;2022-12-18T10:44:22;4.90;99.90
20288;DHT22;10303;51.960;8.372;2022-12-18T10:46:53;5.00;99.90
20288;DHT22;10303;51.960;8.372;2022-12-18T10:49:27;5.10;99.70
20288;DHT22;10303;51.960;8.372;2022-12-18T10:52:12;5.20;99.20
20288;DHT22;10303;51.960;8.372;2022-12-18T10:57:36;5.30;99.00
20288;DHT22;10303;51.960;8.372;2022-12-18T11:02:50;5.30;98.40
20288;DHT22;10303;51.960;8.372;2022-12-18T11:07:55;5.40;97.80
20288;DHT22;10303;51.960;8.372;2022-12-18T11:10:33;5.30;97.60
20288;DHT22;10303;51.960;8.372;2022-12-18T11:13:17;5.40;97.50
20288;DHT22;10303;51.960;8.372;2022-12-18T11:15:47;5.40;97.40
20288;DHT22;10303;51.960;8.372;2022-12-18T11:18:34;5.40;97.20
20288;DHT22;10303;51.960;8.372;2022-12-18T11:21:09;5.30;97.30
20288;DHT22;10303;51.960;8.372;2022-12-18T11:23:37;5.40;97.20
20288;DHT22;10303;51.960;8.372;2022-12-18T11:26:15;5.40;97.10
20288;DHT22;10303;51.960;8.372;2022-12-18T11:28:52;5.40;96.60
20288;DHT22;10303;51.960;8.372;2022-12-18T11:31:35;5.40;96.50
20288;DHT22;10303;51.960;8.372;2022-12-18T11:34:11;5.40;96.40
20288;DHT22;10303;51.960;8.372;2022-12-18T11:36:45;5.40;96.20
20288;DHT22;10303;51.960;8.372;2022-12-18T11:42:18;5.40;96.30
20288;DHT22;10303;51.960;8.372;2022-12-18T11:48:25;5.50;96.50
20288;DHT22;10303;51.960;8.372;2022-12-18T11:50:53;5.50;96.40
20288;DHT22;10303;51.960;8.372;2022-12-18T11:53:23;5.60;96.30
20288;DHT22;10303;51.960;8.372;2022-12-18T11:56:02;5.60;96.10
20288;DHT22;10303;51.960;8.372;2022-12-18T11:59:26;5.60;96.00
20288;DHT22;10303;51.960;8.372;2022-12-18T12:14:31;5.70;95.10
20288;DHT22;10303;51.960;8.372;2022-12-18T12:22:58;5.70;94.70
20288;DHT22;10303;51.960;8.372;2022-12-18T12:25:51;5.70;94.90
20288;DHT22;10303;51.960;8.372;2022-12-18T12:31:33;5.60;94.20
20288;DHT22;10303;51.960;8.372;2022-12-18T12:34:41;5.60;94.20
20288;DHT22;10303;51.960;8.372;2022-12-18T12:39:53;5.60;93.70
20288;DHT22;10303;51.960;8.372;2022-12-18T12:42:31;5.60;93.30
20288;DHT22;10303;51.960;8.372;2022-12-18T12:45:29;5.60;93.60
20288;DHT22;10303;51.960;8.372;2022-12-18T12:48:02;5.60;93.50
20288;DHT22;10303;51.960;8.372;2022-12-18T12:50:34;5.50;93.40
20288;DHT22;10303;51.960;8.372;2022-12-18T12:53:06;5.50;93.30
20288;DHT22;10303;51.960;8.372;2022-12-18T12:55:39;5.50;93.30
20288;DHT22;10303;51.960;8.372;2022-12-18T12:58:16;5.50;93.30
20288;DHT22;10303;51.960;8.372;2022-12-18T13:07:06;5.50;92.90
20288;DHT22;10303;51.960;8.372;2022-12-18T13:13:02;5.50;92.60
20288;DHT22;10303;51.960;8.372;2022-12-18T13:15:40;5.40;92.70
20288;DHT22;10303;51.960;8.372;2022-12-18T13:20:47;5.40;92.40
20288;DHT22;10303;51.960;8.372;2022-12-18T13:31:01;5.30;91.80
20288;DHT22;10303;51.960;8.372;2022-12-18T13:33:38;5.30;91.60
20288;DHT22;10303;51.960;8.372;2022-12-18T13:44:39;5.30;91.30
20288;DHT22;10303;51.960;8.372;2022-12-18T13:47:35;5.20;91.00
20288;DHT22;10303;51.960;8.372;2022-12-18T13:50:21;5.20;90.90
20288;DHT22;10303;51.960;8.372;2022-12-18T13:52:51;5.20;91.00
20288;DHT22;10303;51.960;8.372;2022-12-18T13:55:19;5.20;91.00
20288;DHT22;10303;51.960;8.372;2022-12-18T13:57:48;5.20;91.00
20288;DHT22;10303;51.960;8.372;2022-12-18T14:02:50;5.20;90.80
20288;DHT22;10303;51.960;8.372;2022-12-18T14:05:28;5.20;90.80
20288;DHT22;10303;51.960;8.372;2022-12-18T14:08:00;5.20;90.20
20288;DHT22;10303;51.960;8.372;2022-12-18T14:10:30;5.20;90.60
20288;DHT22;10303;51.960;8.372;2022-12-18T14:12:57;5.20;90.10
20288;DHT22;10303;51.960;8.372;2022-12-18T14:15:41;5.10;89.70
20288;DHT22;10303;51.960;8.372;2022-12-18T14:18:25;5.20;90.30
20288;DHT22;10303;51.960;8.372;2022-12-18T14:21:02;5.10;90.20
20288;DHT22;10303;51.960;8.372;2022-12-18T14:23:38;5.10;90.20
20288;DHT22;10303;51.960;8.372;2022-12-18T14:26:30;5.10;90.30
20288;DHT22;10303;51.960;8.372;2022-12-18T14:29:21;5.10;90.40
20288;DHT22;10303;51.960;8.372;2022-12-18T14:32:18;5.10;89.60
20288;DHT22;10303;51.960;8.372;2022-12-18T14:34:50;5.10;88.40
20288;DHT22;10303;51.960;8.372;2022-12-18T14:37:26;5.10;89.00
20288;DHT22;10303;51.960;8.372;2022-12-18T14:40:03;5.10;89.90
20288;DHT22;10303;51.960;8.372;2022-12-18T14:42:30;5.10;89.50
20288;DHT22;10303;51.960;8.372;2022-12-18T14:48:22;5.00;87.90
20288;DHT22;10303;51.960;8.372;2022-12-18T14:51:02;5.00;88.30
20288;DHT22;10303;51.960;8.372;2022-12-18T14:56:02;5.00;88.00
20288;DHT22;10303;51.960;8.372;2022-12-18T14:58:36;5.00;88.40
20288;DHT22;10303;51.960;8.372;2022-12-18T15:01:02;5.00;88.40
20288;DHT22;10303;51.960;8.372;2022-12-18T15:03:28;5.00;87.90
20288;DHT22;10303;51.960;8.372;2022-12-18T15:05:54;4.90;86.50
20288;DHT22;10303;51.960;8.372;2022-12-18T15:08:36;4.90;86.70
20288;DHT22;10303;51.960;8.372;2022-12-18T15:11:22;4.90;86.70
20288;DHT22;10303;51.960;8.372;2022-12-18T15:16:58;4.90;87.10
20288;DHT22;10303;51.960;8.372;2022-12-18T15:19:38;4.90;87.20
20288;DHT22;10303;51.960;8.372;2022-12-18T15:25:03;4.90;86.40
20288;DHT22;10303;51.960;8.372;2022-12-18T15:28:02;4.90;85.70
20288;DHT22;10303;51.960;8.372;2022-12-18T15:30:29;4.90;86.10
20288;DHT22;10303;51.960;8.372;2022-12-18T15:33:16;4.80;86.10
20288;DHT22;10303;51.960;8.372;2022-12-18T15:36:01;4.80;83.90
20288;DHT22;10303;51.960;8.372;2022-12-18T15:38:29;4.70;85.50
20288;DHT22;10303;51.960;8.372;2022-12-18T15:40:55;4.80;86.20
20288;DHT22;10303;51.960;8.372;2022-12-18T15:43:23;4.80;86.60
20288;DHT22;10303;51.960;8.372;2022-12-18T15:46:20;4.80;86.50
20288;DHT22;10303;51.960;8.372;2022-12-18T15:48:55;4.80;85.90
20288;DHT22;10303;51.960;8.372;2022-12-18T15:51:26;4.80;85.80
20288;DHT22;10303;51.960;8.372;2022-12-18T15:53:56;4.80;85.90
20288;DHT22;10303;51.960;8.372;2022-12-18T15:56:25;4.70;85.50
20288;DHT22;10303;51.960;8.372;2022-12-18T15:59:13;4.70;85.30
20288;DHT22;10303;51.960;8.372;2022-12-18T16:01:44;4.70;85.30
20288;DHT22;10303;51.960;8.372;2022-12-18T16:04:15;4.60;85.10
20288;DHT22;10303;51.960;8.372;2022-12-18T16:06:42;4.70;85.60
20288;DHT22;10303;51.960;8.372;2022-12-18T16:09:08;4.60;85.00
20288;DHT22;10303;51.960;8.372;2022-12-18T16:11:36;4.60;85.10
20288;DHT22;10303;51.960;8.372;2022-12-18T16:14:16;4.60;85.10
20288;DHT22;10303;51.960;8.372;2022-12-18T16:16:51;4.60;85.40
20288;DHT22;10303;51.960;8.372;2022-12-18T16:19:24;4.60;85.50
20288;DHT22;10303;51.960;8.372;2022-12-18T16:21:52;4.60;85.70
20288;DHT22;10303;51.960;8.372;2022-12-18T16:24:22;4.60;85.70
20288;DHT22;10303;51.960;8.372;2022-12-18T16:26:51;4.50;84.90
20288;DHT22;10303;51.960;8.372;2022-12-18T16:29:20;4.50;85.20
20288;DHT22;10303;51.960;8.372;2022-12-18T16:31:51;4.50;85.20
20288;DHT22;10303;51.960;8.372;2022-12-18T16:36:59;4.40;84.50
20288;DHT22;10303;51.960;8.372;2022-12-18T16:39:28;4.40;84.90
20288;DHT22;10303;51.960;8.372;2022-12-18T16:41:55;4.40;85.50
20288;DHT22;10303;51.960;8.372;2022-12-18T16:44:22;4.40;85.70
20288;DHT22;10303;51.960;8.372;2022-12-18T16:46:48;4.40;85.90
20288;DHT22;10303;51.960;8.372;2022-12-18T16:49:16;4.40;86.00
20288;DHT22;10303;51.960;8.372;2022-12-18T16:51:45;4.50;86.00
20288;DHT22;10303;51.960;8.372;2022-12-18T16:54:12;4.50;85.90
20288;DHT22;10303;51.960;8.372;2022-12-18T16:56:38;4.50;85.60
20288;DHT22;10303;51.960;8.372;2022-12-18T16:59:05;4.50;86.00
20288;DHT22;10303;51.960;8.372;2022-12-18T17:01:31;4.50;86.10
20288;DHT22;10303;51.960;8.372;2022-12-18T17:04:03;4.50;86.10
20288;DHT22;10303;51.960;8.372;2022-12-18T17:06:33;4.50;86.40
20288;DHT22;10303;51.960;8.372;2022-12-18T17:09:03;4.50;85.70
20288;DHT22;10303;51.960;8.372;2022-12-18T17:11:33;4.50;85.50
20288;DHT22;10303;51.960;8.372;2022-12-18T17:14:09;4.50;85.90
20288;DHT22;10303;51.960;8.372;2022-12-18T17:16:38;4.50;85.50
20288;DHT22;10303;51.960;8.372;2022-12-18T17:19:04;4.50;85.40
20288;DHT22;10303;51.960;8.372;2022-12-18T17:21:30;4.40;85.60
20288;DHT22;10303;51.960;8.372;2022-12-18T17:23:59;4.40;85.80
20288;DHT22;10303;51.960;8.372;2022-12-18T17:26:27;4.50;86.70
20288;DHT22;10303;51.960;8.372;2022-12-18T17:28:55;4.40;85.70
20288;DHT22;10303;51.960;8.372;2022-12-18T17:31:26;4.40;85.50
20288;DHT22;10303;51.960;8.372;2022-12-18T17:33:54;4.50;85.70
20288;DHT22;10303;51.960;8.372;2022-12-18T17:36:21;4.40;85.20
20288;DHT22;10303;51.960;8.372;2022-12-18T17:38:52;4.40;85.70
20288;DHT22;10303;51.960;8.372;2022-12-18T17:41:20;4.40;85.70
20288;DHT22;10303;51.960;8.372;2022-12-18T17:44:05;4.40;85.50
20288;DHT22;10303;51.960;8.372;2022-12-18T17:46:32;4.40;85.70
20288;DHT22;10303;51.960;8.372;2022-12-18T17:49:00;4.40;85.00
20288;DHT22;10303;51.960;8.372;2022-12-18T17:51:27;4.40;85.20
20288;DHT22;10303;51.960;8.372;2022-12-18T17:53:54;4.40;85.10
20288;DHT22;10303;51.960;8.372;2022-12-18T17:56:21;4.30;84.70
20288;DHT22;10303;51.960;8.372;2022-12-18T17:58:48;4.20;84.40
20288;DHT22;10303;51.960;8.372;2022-12-18T18:01:17;4.30;85.00
20288;DHT22;10303;51.960;8.372;2022-12-18T18:03:46;4.20;84.40
20288;DHT22;10303;51.960;8.372;2022-12-18T18:06:13;4.20;84.60
20288;DHT22;10303;51.960;8.372;2022-12-18T18:08:40;4.20;85.20